createdAt,value
2022-08-10T00:01:47.759Z,99887.31
2022-08-10T00:04:21.502Z,99875.44
2022-08-10T00:06:49.390Z,99887.78
2022-08-10T00:09:16.072Z,99890.16
2022-08-10T00:11:42.872Z,99893.31
2022-08-10T00:14:09.767Z,99892.03
2022-08-10T00:16:36.522Z,99876.47
2022-08-10T00:19:03.429Z,99898.47
2022-08-10T00:21:30.169Z,99905.03
2022-08-10T00:23:56.890Z,99903.03
2022-08-10T00:26:23.858Z,99904.47
2022-08-10T00:28:50.617Z,99901.38
2022-08-10T00:31:17.369Z,99896.81
2022-08-10T00:33:44.119Z,99880.38
2022-08-10T00:36:10.880Z,99874.31
2022-08-10T00:38:37.813Z,99890.19
2022-08-10T00:41:04.658Z,99890.03
2022-08-10T00:43:31.419Z,99892.88
2022-08-10T00:45:59.824Z,99878.78
2022-08-10T00:48:31.007Z,99886.56
2022-08-10T00:51:01.398Z,99886.03
2022-08-10T00:53:29.228Z,99893.09
2022-08-10T00:57:12.603Z,99885.56
2022-08-10T00:58:43.724Z,99878.97
2022-08-10T01:02:08.567Z,99881.50
2022-08-10T01:04:57.501Z,99879.00
2022-08-10T01:06:59.640Z,99887.50
2022-08-10T01:09:38.613Z,99886.44
2022-08-10T01:12:39.223Z,99880.78
2022-08-10T01:15:11.224Z,99871.03
2022-08-10T01:18:03.811Z,99881.91
2022-08-10T01:20:39.506Z,99886.47
2022-08-10T01:23:18.458Z,99889.91
2022-08-10T01:26:11.767Z,99881.41
2022-08-10T01:29:08.023Z,99883.09
2022-08-10T01:31:40.840Z,99878.59
2022-08-10T01:34:33.247Z,99877.78
2022-08-10T01:37:05.288Z,99882.03
2022-08-10T01:39:39.312Z,99878.78
2022-08-10T01:42:07.349Z,99883.47
2022-08-10T01:44:41.047Z,99883.47
2022-08-10T01:47:33.727Z,99873.09
2022-08-10T01:50:10.255Z,99880.19
2022-08-10T01:52:40.718Z,99886.72
2022-08-10T01:55:09.061Z,99869.16
2022-08-10T01:57:38.039Z,99893.41
2022-08-10T02:00:06.398Z,99894.53
2022-08-10T02:02:35.035Z,99881.50
2022-08-10T02:05:05.435Z,99904.75
2022-08-10T02:07:34.586Z,99905.59
2022-08-10T02:10:09.749Z,99904.19
2022-08-10T02:12:38.399Z,99896.41
2022-08-10T02:15:12.880Z,99892.25
2022-08-10T02:17:58.232Z,99898.53
2022-08-10T02:20:37.833Z,99897.66
2022-08-10T02:23:11.723Z,99910.41
2022-08-10T02:25:43.417Z,99903.31
2022-08-10T02:28:27.293Z,99904.19
2022-08-10T02:31:06.552Z,99901.09
2022-08-10T02:33:37.340Z,99911.03
2022-08-10T02:36:11.950Z,99908.75
2022-08-10T02:38:57.433Z,99907.47
2022-08-10T02:45:14.590Z,99912.16
2022-08-10T02:45:23.148Z,99914.56
2022-08-10T02:47:58.802Z,99910.47
2022-08-10T02:50:28.271Z,99909.31
2022-08-10T02:53:06.561Z,99898.44
2022-08-10T02:55:48.519Z,99908.78
2022-08-10T02:58:25.826Z,99891.63
2022-08-10T03:00:55.892Z,99902.53
2022-08-10T03:03:28.788Z,99894.72
2022-08-10T03:06:05.841Z,99885.97
2022-08-10T03:08:36.587Z,99897.84
2022-08-10T03:11:05.321Z,99900.28
2022-08-10T03:13:33.766Z,99904.78
2022-08-10T03:16:03.077Z,99894.31
2022-08-10T03:18:32.148Z,99906.22
2022-08-10T03:20:59.638Z,99905.09
2022-08-10T03:23:28.107Z,99897.84
2022-08-10T03:25:57.277Z,99903.81
2022-08-10T03:28:27.332Z,99872.50
2022-08-10T03:30:54.897Z,99905.22
2022-08-10T03:33:24.369Z,99884.81
2022-08-10T03:36:43.072Z,99893.44
2022-08-10T03:38:40.704Z,99893.88
2022-08-10T03:41:11.797Z,99906.22
2022-08-10T03:43:46.558Z,99906.34
2022-08-10T03:46:15.528Z,99910.31
2022-08-10T03:48:49.002Z,99905.47
2022-08-10T03:51:19.027Z,99919.50
2022-08-10T03:54:05.663Z,99925.72
2022-08-10T03:56:36.320Z,99915.69
2022-08-10T03:59:05.085Z,99932.28
2022-08-10T04:02:44.494Z,99929.84
2022-08-10T04:04:24.700Z,99925.72
2022-08-10T04:06:57.958Z,99935.09
2022-08-10T04:09:54.765Z,99924.34
2022-08-10T04:12:21.070Z,99924.06
2022-08-10T04:14:51.365Z,99932.41
2022-08-10T04:18:04.262Z,99942.75
2022-08-10T04:20:34.933Z,99947.88
2022-08-10T04:23:06.657Z,99942.75
2022-08-10T04:25:34.891Z,99937.94
2022-08-10T04:28:03.245Z,99948.44
2022-08-10T04:30:32.314Z,99956.78
2022-08-10T04:33:02.322Z,99949.56
2022-08-10T04:35:30.010Z,99955.09
2022-08-10T04:37:59.501Z,99936.94
2022-08-10T04:40:30.499Z,99943.06
2022-08-10T04:43:01.420Z,99954.81
2022-08-10T04:45:48.433Z,99950.16
2022-08-10T04:48:43.270Z,99941.47
2022-08-10T04:51:17.044Z,99939.81
2022-08-10T04:54:05.070Z,99947.44
2022-08-10T04:56:36.185Z,99955.78
2022-08-10T04:59:05.339Z,99952.00
2022-08-10T05:02:21.892Z,99969.25
2022-08-10T05:04:37.404Z,99955.94
2022-08-10T05:07:16.289Z,99957.69
2022-08-10T05:10:01.155Z,99959.81
2022-08-10T05:12:30.306Z,99954.28
2022-08-10T05:14:57.254Z,99939.81
2022-08-10T05:17:24.757Z,99920.09
2022-08-10T05:20:03.804Z,99929.47
2022-08-10T05:22:36.715Z,99917.44
2022-08-10T05:25:05.374Z,99899.25
2022-08-10T05:27:32.241Z,99926.47
2022-08-10T05:30:01.791Z,99960.75
2022-08-10T05:32:31.845Z,99926.34
2022-08-10T05:34:58.692Z,99938.09
2022-08-10T05:38:09.833Z,99918.66
2022-08-10T05:40:13.857Z,99947.34
2022-08-10T05:42:42.081Z,99942.41
2022-08-10T05:45:25.136Z,99940.16
2022-08-10T05:48:55.763Z,99932.88
2022-08-10T05:50:39.236Z,99916.59
2022-08-10T05:54:01.152Z,99948.16
2022-08-10T05:55:53.184Z,99926.97
2022-08-10T05:58:20.153Z,99922.16
2022-08-10T06:00:54.473Z,99935.88
2022-08-10T06:03:27.818Z,99936.41
2022-08-10T06:05:57.037Z,99912.91
2022-08-10T06:08:31.729Z,99937.38
2022-08-10T06:12:23.892Z,99915.03
2022-08-10T06:14:13.853Z,99937.06
2022-08-10T06:16:45.261Z,99941.50
2022-08-10T06:19:14.651Z,99914.38
2022-08-10T06:22:00.349Z,99939.88
2022-08-10T06:24:31.004Z,99922.22
2022-08-10T06:27:01.460Z,99958.75
2022-08-10T06:29:32.269Z,99919.16
2022-08-10T06:32:00.829Z,99946.13
2022-08-10T06:34:32.282Z,99946.91
2022-08-10T06:37:01.802Z,99943.13
2022-08-10T06:39:36.898Z,99935.78
2022-08-10T06:42:16.328Z,99946.19
2022-08-10T06:45:08.158Z,99929.88
2022-08-10T06:47:39.797Z,99939.44
2022-08-10T06:50:14.056Z,99935.78
2022-08-10T06:52:47.042Z,99926.03
2022-08-10T06:55:16.601Z,99939.94
2022-08-10T06:58:00.087Z,99932.75
2022-08-10T07:00:32.499Z,99916.31
2022-08-10T07:03:08.801Z,99935.47
2022-08-10T07:05:39.382Z,99894.13
2022-08-10T07:08:07.670Z,99926.53
2022-08-10T07:10:41.100Z,99892.53
2022-08-10T07:14:16.998Z,99922.31
2022-08-10T07:16:07.447Z,99904.28
2022-08-10T07:18:36.593Z,99910.41
2022-08-10T07:21:04.859Z,99903.94
2022-08-10T07:23:58.295Z,99915.94
2022-08-10T07:26:21.519Z,99919.47
2022-08-10T07:28:51.072Z,99904.69
2022-08-10T07:31:29.749Z,99914.78
2022-08-10T07:34:09.759Z,99910.59
2022-08-10T07:36:38.098Z,99875.53
2022-08-10T07:39:06.090Z,99904.69
2022-08-10T07:41:34.435Z,99903.19
2022-08-10T07:44:04.701Z,99915.69
2022-08-10T07:46:33.857Z,99904.25
2022-08-10T07:49:15.288Z,99893.84
2022-08-10T07:51:48.127Z,99899.25
2022-08-10T07:54:24.159Z,99880.00
2022-08-10T07:56:53.927Z,99901.97
2022-08-10T07:59:25.296Z,99889.75
2022-08-10T08:01:55.474Z,99889.25
2022-08-10T08:04:24.378Z,99894.44
2022-08-10T08:06:53.777Z,99892.34
2022-08-10T08:09:22.305Z,99881.13
2022-08-10T08:11:52.685Z,99888.09
2022-08-10T08:14:22.078Z,99888.38
2022-08-10T08:16:51.597Z,99899.53
2022-08-10T08:19:28.473Z,99885.94
2022-08-10T08:24:04.586Z,99838.47
2022-08-10T08:24:55.478Z,99881.88
2022-08-10T08:27:23.988Z,99882.16
2022-08-10T08:29:52.256Z,99888.19
2022-08-10T08:32:22.797Z,99868.41
2022-08-10T08:35:11.916Z,99870.53
2022-08-10T08:38:33.407Z,99882.00
2022-08-10T08:40:33.924Z,99872.06
2022-08-10T08:43:00.654Z,99883.63
2022-08-10T08:46:00.582Z,99882.31
2022-08-10T08:48:39.072Z,99879.50
2022-08-10T08:52:07.775Z,99885.22
2022-08-10T08:54:12.168Z,99876.94
2022-08-10T08:57:00.609Z,99865.31
2022-08-10T08:59:55.020Z,99880.97
2022-08-10T09:03:00.010Z,99870.72
2022-08-10T09:06:00.243Z,99837.34
2022-08-10T09:08:41.570Z,99865.59
2022-08-10T09:11:14.544Z,99866.75
2022-08-10T09:13:47.518Z,99869.47
2022-08-10T09:16:24.783Z,99861.38
2022-08-10T09:19:03.948Z,99860.50
2022-08-10T09:21:43.258Z,99871.97
2022-08-10T09:24:27.929Z,99855.88
2022-08-10T09:26:57.524Z,99869.06
2022-08-10T09:29:27.853Z,99850.13
2022-08-10T09:36:16.276Z,99864.03
2022-08-10T09:36:22.614Z,99854.19
2022-08-10T09:38:18.541Z,99824.34
2022-08-10T09:41:00.497Z,99837.97
2022-08-10T09:43:59.169Z,99835.09
2022-08-10T09:46:50.417Z,99835.31
2022-08-10T09:49:53.215Z,99827.19
2022-08-10T09:52:32.262Z,99832.59
2022-08-10T09:56:18.046Z,99829.47
2022-08-10T09:58:38.292Z,99835.47
2022-08-10T10:02:03.200Z,99823.16
2022-08-10T10:04:30.816Z,99823.06
2022-08-10T10:07:03.689Z,99819.63
2022-08-10T10:09:40.074Z,99817.84
2022-08-10T10:12:41.988Z,99807.78
2022-08-10T10:15:43.268Z,99815.53
2022-08-10T10:18:34.830Z,99813.72
2022-08-10T10:21:04.459Z,99811.84
2022-08-10T10:24:23.517Z,99813.59
2022-08-10T10:27:03.669Z,99788.34
2022-08-10T10:29:57.290Z,99818.63
2022-08-10T10:32:32.083Z,99811.31
2022-08-10T10:35:25.398Z,99797.47
2022-08-10T10:38:01.150Z,99797.75
2022-08-10T10:40:38.888Z,99806.97
2022-08-10T10:43:24.228Z,99795.03
2022-08-10T10:46:23.500Z,99781.38
2022-08-10T10:49:17.868Z,99796.97
2022-08-10T10:52:13.661Z,99792.34
2022-08-10T10:54:55.763Z,99793.38
2022-08-10T10:58:00.503Z,99789.00
2022-08-10T11:00:27.859Z,99770.25
2022-08-10T11:03:13.161Z,99782.84
2022-08-10T11:05:55.257Z,99789.13
2022-08-10T11:08:29.708Z,99781.47
2022-08-10T11:11:20.357Z,99789.38
2022-08-10T11:14:29.740Z,99792.44
2022-08-10T11:17:19.111Z,99778.19
2022-08-10T11:20:01.575Z,99759.44
2022-08-10T11:22:56.447Z,99767.88
2022-08-10T11:25:26.203Z,99772.69
2022-08-10T11:28:11.019Z,99755.78
2022-08-10T11:30:50.290Z,99752.25
2022-08-10T11:33:32.627Z,99759.88
2022-08-10T11:36:10.740Z,99742.97
2022-08-10T11:38:57.597Z,99754.09
2022-08-10T11:42:07.740Z,99759.13
2022-08-10T11:44:33.599Z,99763.25
2022-08-10T11:47:17.846Z,99743.59
2022-08-10T11:50:03.547Z,99757.31
2022-08-10T11:52:44.924Z,99749.22
2022-08-10T11:55:17.982Z,99731.78
2022-08-10T11:57:53.365Z,99737.59
2022-08-10T12:00:22.614Z,99737.66
2022-08-10T12:03:03.491Z,99731.00
2022-08-10T12:05:46.572Z,99706.75
2022-08-10T12:10:02.099Z,99738.75
2022-08-10T12:11:12.679Z,99745.69
2022-08-10T12:14:20.242Z,99737.69
2022-08-10T12:16:49.799Z,99739.28
2022-08-10T12:19:27.662Z,99737.09
2022-08-10T12:22:09.211Z,99733.00
2022-08-10T12:24:59.180Z,99722.94
2022-08-10T12:27:48.873Z,99723.13
2022-08-10T12:30:17.752Z,99718.19
2022-08-10T12:33:07.846Z,99717.22
2022-08-10T12:36:14.846Z,99716.97
2022-08-10T12:39:11.050Z,99731.59
2022-08-10T12:41:45.596Z,99717.91
2022-08-10T12:44:18.431Z,99710.19
2022-08-10T12:46:48.049Z,99713.28
2022-08-10T12:49:33.808Z,99700.78
2022-08-10T12:52:07.397Z,99689.53
2022-08-10T12:54:38.512Z,99679.69
2022-08-10T12:57:12.374Z,99703.94
2022-08-10T12:59:46.072Z,99683.97
2022-08-10T13:02:21.560Z,99682.94
2022-08-10T13:04:51.458Z,99649.25
2022-08-10T13:08:25.687Z,99645.50
2022-08-10T13:10:17.004Z,99673.97
2022-08-10T13:12:45.352Z,99673.03
2022-08-10T13:15:49.657Z,99679.47
2022-08-10T13:18:25.469Z,99647.34
2022-08-10T13:20:55.230Z,99677.91
2022-08-10T13:23:28.472Z,99682.22
2022-08-10T13:25:58.273Z,99662.44
2022-08-10T13:28:39.907Z,99654.66
2022-08-10T13:31:16.734Z,99667.31
2022-08-10T13:34:38.978Z,99661.53
2022-08-10T13:36:48.601Z,99638.06
2022-08-10T13:39:20.534Z,99660.00
2022-08-10T13:41:49.487Z,99661.03
2022-08-10T13:44:28.980Z,99647.19
2022-08-10T13:46:57.064Z,99629.47
2022-08-10T13:49:24.237Z,99651.03
2022-08-10T13:51:54.500Z,99591.97
2022-08-10T13:54:29.263Z,99612.72
2022-08-10T13:56:57.076Z,99592.84
2022-08-10T14:00:34.843Z,99613.28
2022-08-10T14:02:23.310Z,99636.06
2022-08-10T14:04:51.604Z,99631.00
2022-08-10T14:07:19.849Z,99619.69
2022-08-10T14:09:50.303Z,99610.41
2022-08-10T14:12:18.807Z,99631.31
2022-08-10T14:15:00.939Z,99628.53
2022-08-10T14:17:28.349Z,99631.06
2022-08-10T14:19:59.441Z,99605.03
2022-08-10T14:22:33.676Z,99610.56
2022-08-10T14:25:13.061Z,99603.59
2022-08-10T14:28:02.172Z,99623.34
2022-08-10T14:30:33.275Z,99611.38
2022-08-10T14:33:04.390Z,99618.09
2022-08-10T14:36:21.558Z,99616.63
2022-08-10T14:38:29.071Z,99617.28
2022-08-10T14:40:59.198Z,99618.97
2022-08-10T14:43:31.021Z,99603.47
2022-08-10T14:46:05.989Z,99612.06
2022-08-10T14:48:39.554Z,99600.59
2022-08-10T14:51:09.434Z,99601.16
2022-08-10T14:53:38.519Z,99568.38
2022-08-10T14:56:08.278Z,99610.97
2022-08-10T14:59:06.224Z,99592.88
2022-08-10T15:02:01.289Z,99606.75
2022-08-10T15:04:24.835Z,99606.44
2022-08-10T15:07:01.332Z,99599.84
2022-08-10T15:10:00.807Z,99609.56
2022-08-10T15:12:32.139Z,99573.13
2022-08-10T15:15:00.979Z,99593.50
2022-08-10T15:17:37.508Z,99586.91
2022-08-10T15:20:20.294Z,99586.00
2022-08-10T15:22:53.795Z,99595.53
2022-08-10T15:25:26.212Z,99587.56
2022-08-10T15:28:06.464Z,99592.50
2022-08-10T15:30:43.159Z,99553.22
2022-08-10T15:34:02.508Z,99596.19
2022-08-10T15:36:40.847Z,99590.56
2022-08-10T15:40:22.082Z,99589.38
2022-08-10T15:42:18.523Z,99573.09
2022-08-10T15:44:54.217Z,99590.13
2022-08-10T15:47:44.992Z,99588.81
2022-08-10T15:50:16.172Z,99569.75
2022-08-10T15:53:00.644Z,99580.63
2022-08-10T15:55:44.177Z,99571.09
2022-08-10T15:58:39.218Z,99549.00
2022-08-10T16:02:12.944Z,99528.25
2022-08-10T16:04:19.404Z,99538.19
2022-08-10T16:06:55.846Z,99524.19
2022-08-10T16:10:23.252Z,99535.13
2022-08-10T16:12:59.250Z,99561.34
2022-08-10T16:15:27.448Z,99563.53
2022-08-10T16:18:00.364Z,99543.03
2022-08-10T16:20:31.356Z,99550.34
2022-08-10T16:23:02.754Z,99549.06
2022-08-10T16:25:48.274Z,99518.00
2022-08-10T16:28:23.460Z,99518.78
2022-08-10T16:30:54.227Z,99566.41
2022-08-10T16:33:53.468Z,99563.06
2022-08-10T16:36:16.833Z,99519.31
2022-08-10T16:38:47.134Z,99530.41
2022-08-10T16:42:02.667Z,99553.34
2022-08-10T16:44:05.403Z,99551.34
2022-08-10T16:46:34.361Z,99513.28
2022-08-10T16:49:02.380Z,99543.53
2022-08-10T16:51:31.026Z,99532.19
2022-08-10T16:54:01.620Z,99550.66
2022-08-10T16:56:34.534Z,99535.81
2022-08-10T16:59:21.120Z,99549.41
2022-08-10T17:01:54.413Z,99546.84
2022-08-10T17:04:23.686Z,99527.19
2022-08-10T17:06:57.334Z,99556.06
2022-08-10T17:09:31.998Z,99538.63
2022-08-10T17:12:05.462Z,99558.63
2022-08-10T17:14:32.483Z,99536.16
2022-08-10T17:17:21.860Z,99522.22
2022-08-10T17:19:49.768Z,99557.22
2022-08-10T17:22:20.318Z,99533.59
2022-08-10T17:24:53.103Z,99546.91
2022-08-10T17:28:04.881Z,99552.00
2022-08-10T17:30:15.874Z,99522.09
2022-08-10T17:32:59.121Z,99569.69
2022-08-10T17:35:35.017Z,99555.78
2022-08-10T17:38:17.905Z,99570.53
2022-08-10T17:40:49.977Z,99561.03
2022-08-10T17:43:57.781Z,99575.75
2022-08-10T17:46:11.954Z,99548.84
2022-08-10T17:48:40.143Z,99585.31
2022-08-10T17:51:14.099Z,99549.56
2022-08-10T17:53:51.226Z,99527.25
2022-08-10T17:56:20.933Z,99582.44
2022-08-10T17:58:58.751Z,99561.91
2022-08-10T18:01:40.446Z,99581.56
2022-08-10T18:04:15.412Z,99572.13
2022-08-10T18:06:44.088Z,99574.16
2022-08-10T18:09:24.549Z,99547.28
2022-08-10T18:12:01.047Z,99584.91
2022-08-10T18:14:33.577Z,99583.34
2022-08-10T18:17:09.289Z,99574.72
2022-08-10T18:19:38.667Z,99559.75
2022-08-10T18:22:06.477Z,99576.66
2022-08-10T18:24:37.122Z,99595.56
2022-08-10T18:27:06.446Z,99580.53
2022-08-10T18:29:38.121Z,99559.63
2022-08-10T18:32:07.619Z,99601.25
2022-08-10T18:34:36.720Z,99587.06
2022-08-10T18:37:09.122Z,99607.06
2022-08-10T18:40:08.593Z,99605.44
2022-08-10T18:42:43.484Z,99614.94
2022-08-10T18:45:38.969Z,99605.84
2022-08-10T18:49:23.015Z,99615.16
2022-08-10T18:52:11.533Z,99545.13
2022-08-10T19:19:51.384Z,99617.72
2022-08-10T19:22:50.728Z,99606.94
2022-08-10T19:28:57.865Z,99656.47
2022-08-10T19:31:50.239Z,99662.56
2022-08-10T19:35:06.164Z,99673.19
2022-08-10T19:46:02.432Z,99603.97
2022-08-10T19:48:56.456Z,99667.81
2022-08-10T19:51:26.092Z,99637.44
2022-08-10T19:54:16.416Z,99664.31
2022-08-10T19:57:31.531Z,99673.91
2022-08-10T20:00:24.175Z,99666.53
2022-08-10T20:03:13.668Z,99675.06
2022-08-10T20:06:12.996Z,99671.94
2022-08-10T20:08:46.491Z,99673.53
2022-08-10T20:11:47.150Z,99634.28
2022-08-10T20:14:21.216Z,99673.72
2022-08-10T20:16:55.895Z,99643.25
2022-08-10T20:19:53.198Z,99674.09
2022-08-10T20:47:03.227Z,99701.31
2022-08-10T21:22:25.584Z,99703.94
2022-08-10T21:25:06.853Z,99702.09
2022-08-10T21:27:59.643Z,99704.28
2022-08-10T21:30:51.163Z,99667.13
2022-08-10T21:33:41.345Z,99702.44
2022-08-10T21:36:22.778Z,99706.19
2022-08-10T21:39:09.921Z,99663.72
2022-08-10T21:45:59.103Z,99704.66
2022-08-10T21:48:57.867Z,99677.97
2022-08-10T21:52:09.895Z,99700.81
2022-08-10T21:55:16.828Z,99683.06
2022-08-10T21:58:15.770Z,99666.66
2022-08-10T22:04:19.231Z,99719.44
2022-08-10T22:07:09.076Z,99707.13
2022-08-10T22:09:59.746Z,99711.50
2022-08-10T22:12:56.758Z,99683.91
2022-08-10T22:16:10.718Z,99697.13
2022-08-10T22:19:02.149Z,99688.16
2022-08-10T22:22:04.500Z,99711.66
2022-08-10T22:25:17.600Z,99708.97
2022-08-10T22:28:17.669Z,99658.66
2022-08-10T22:31:31.737Z,99706.34
2022-08-10T22:35:02.802Z,99715.22
2022-08-10T22:37:50.795Z,99717.34
2022-08-10T22:40:43.777Z,99713.09
2022-08-10T22:43:40.760Z,99716.81
2022-08-10T22:46:37.803Z,99693.94
2022-08-10T22:49:05.157Z,99702.03
2022-08-10T22:52:01.357Z,99682.09
2022-08-10T22:54:52.533Z,99715.06
2022-08-10T22:57:48.719Z,99720.13
2022-08-10T23:03:42.436Z,99723.09
2022-08-10T23:06:17.412Z,99692.44
2022-08-10T23:08:50.173Z,99699.69
2022-08-10T23:11:23.820Z,99731.00
2022-08-10T23:13:57.649Z,99690.22
2022-08-10T23:16:46.939Z,99696.97
2022-08-10T23:19:20.867Z,99713.78
2022-08-10T23:22:11.830Z,99697.47
2022-08-10T23:24:45.006Z,99703.50
2022-08-10T23:27:37.901Z,99730.72
2022-08-10T23:30:09.777Z,99733.44
2022-08-10T23:32:44.211Z,99673.97
2022-08-10T23:36:28.094Z,99678.44
2022-08-10T23:38:03.561Z,99697.81
2022-08-10T23:40:31.441Z,99706.13
2022-08-10T23:43:14.918Z,99721.66
2022-08-10T23:45:53.398Z,99691.63
2022-08-10T23:48:25.247Z,99698.19
2022-08-10T23:50:59.638Z,99712.63
2022-08-10T23:53:30.313Z,99707.59
2022-08-10T23:56:25.132Z,99689.53
2022-08-10T23:58:56.007Z,99688.78
